createdAt,value
2023-09-26T00:00:59.619Z,0.00
2023-09-26T00:01:59.590Z,0.00
2023-09-26T00:02:59.553Z,0.00
2023-09-26T00:03:59.591Z,0.00
2023-09-26T00:04:59.572Z,0.00
2023-09-26T00:05:59.504Z,0.00
2023-09-26T00:06:59.502Z,0.00
2023-09-26T00:08:00.475Z,0.00
2023-09-26T00:08:59.450Z,0.00
2023-09-26T00:09:59.519Z,0.00
2023-09-26T00:10:59.433Z,0.00
2023-09-26T00:11:59.422Z,0.00
2023-09-26T00:12:59.449Z,0.00
2023-09-26T00:13:59.398Z,0.00
2023-09-26T00:14:59.409Z,0.00
2023-09-26T00:15:59.472Z,0.00
2023-09-26T00:16:59.397Z,0.00
2023-09-26T00:17:59.401Z,0.00
2023-09-26T00:18:59.403Z,0.00
2023-09-26T00:19:59.365Z,0.00
2023-09-26T00:20:59.338Z,0.00
2023-09-26T00:21:59.381Z,0.00
2023-09-26T00:22:59.333Z,0.00
2023-09-26T00:23:59.342Z,0.00
2023-09-26T00:24:59.360Z,0.00
2023-09-26T00:25:59.292Z,0.00
2023-09-26T00:26:59.289Z,0.00
2023-09-26T00:27:59.322Z,0.00
2023-09-26T00:28:59.282Z,0.00
2023-09-26T00:29:59.258Z,0.00
2023-09-26T00:30:59.245Z,0.00
2023-09-26T00:31:59.254Z,0.00
2023-09-26T00:32:59.341Z,0.00
2023-09-26T00:33:59.278Z,0.00
2023-09-26T00:34:59.210Z,0.00
2023-09-26T00:35:59.234Z,0.00
2023-09-26T00:36:59.326Z,0.00
2023-09-26T00:37:59.474Z,0.00
2023-09-26T00:38:59.164Z,0.00
2023-09-26T00:39:59.167Z,0.00
2023-09-26T00:40:59.146Z,0.00
2023-09-26T00:41:59.154Z,0.00
2023-09-26T00:42:59.208Z,0.00
2023-09-26T00:43:59.161Z,0.00
2023-09-26T00:44:59.157Z,0.00
2023-09-26T00:45:59.143Z,0.00
2023-09-26T00:46:59.233Z,0.00
2023-09-26T00:47:59.151Z,0.00
2023-09-26T00:48:59.082Z,0.00
2023-09-26T00:49:59.064Z,0.00
2023-09-26T00:50:59.055Z,0.00
2023-09-26T00:51:59.100Z,0.00
2023-09-26T00:52:59.030Z,0.00
2023-09-26T00:53:59.016Z,0.00
2023-09-26T00:54:59.052Z,0.00
2023-09-26T00:55:59.033Z,0.00
2023-09-26T00:56:59.000Z,0.00
2023-09-26T00:57:59.026Z,0.00
2023-09-26T00:58:58.963Z,0.00
2023-09-26T00:59:58.963Z,0.00
2023-09-26T01:00:58.982Z,0.00
2023-09-26T01:01:59.005Z,0.00
2023-09-26T01:02:59.055Z,0.00
2023-09-26T01:03:59.082Z,0.00
2023-09-26T01:04:58.907Z,0.00
2023-09-26T01:05:58.925Z,0.00
2023-09-26T01:06:59.030Z,0.00
2023-09-26T01:07:58.882Z,0.00
2023-09-26T01:08:58.891Z,0.00
2023-09-26T01:09:59.885Z,0.00
2023-09-26T01:10:58.869Z,0.00
2023-09-26T01:11:58.832Z,0.00
2023-09-26T01:12:58.843Z,0.00
2023-09-26T01:13:58.823Z,0.00
2023-09-26T01:14:58.828Z,0.00
2023-09-26T01:15:58.927Z,0.00
2023-09-26T01:16:58.838Z,0.00
2023-09-26T01:17:59.825Z,0.00
2023-09-26T01:18:58.871Z,0.00
2023-09-26T01:19:58.776Z,0.00
2023-09-26T01:20:58.762Z,0.00
2023-09-26T01:21:58.760Z,0.00
2023-09-26T01:22:58.746Z,0.00
2023-09-26T01:23:58.720Z,0.00
2023-09-26T01:24:58.772Z,0.00
2023-09-26T01:25:58.695Z,0.00
2023-09-26T01:26:58.694Z,0.00
2023-09-26T01:27:58.689Z,0.00
2023-09-26T01:28:58.680Z,0.00
2023-09-26T01:29:58.669Z,0.00
2023-09-26T01:30:58.672Z,0.00
2023-09-26T01:31:58.648Z,0.00
2023-09-26T01:32:58.657Z,0.00
2023-09-26T01:33:58.664Z,0.00
2023-09-26T01:34:58.606Z,0.00
2023-09-26T01:35:58.599Z,0.00
2023-09-26T01:36:58.611Z,0.00
2023-09-26T01:37:58.577Z,0.00
2023-09-26T01:38:58.599Z,0.00
2023-09-26T01:39:58.563Z,0.00
2023-09-26T01:40:58.548Z,0.00
2023-09-26T01:41:58.543Z,0.00
2023-09-26T01:42:58.575Z,0.00
2023-09-26T01:43:58.537Z,0.00
2023-09-26T01:44:58.518Z,0.00
2023-09-26T01:45:58.579Z,0.00
2023-09-26T01:46:58.612Z,0.00
2023-09-26T01:47:58.521Z,0.00
2023-09-26T01:48:58.502Z,0.00
2023-09-26T01:49:58.450Z,0.00
2023-09-26T01:50:58.449Z,0.00
2023-09-26T01:51:58.481Z,0.00
2023-09-26T01:52:58.446Z,0.00
2023-09-26T01:53:58.432Z,0.00
2023-09-26T01:54:58.420Z,0.00
2023-09-26T01:55:58.398Z,0.00
2023-09-26T01:56:58.408Z,0.00
2023-09-26T01:57:58.457Z,0.00
2023-09-26T01:58:58.363Z,0.00
2023-09-26T01:59:58.360Z,0.00
2023-09-26T02:00:58.385Z,0.00
2023-09-26T02:01:58.386Z,0.00
2023-09-26T02:02:58.384Z,0.00
2023-09-26T02:03:58.336Z,0.00
2023-09-26T02:04:58.321Z,0.00
2023-09-26T02:05:58.387Z,0.00
2023-09-26T02:06:58.346Z,0.00
2023-09-26T02:07:58.279Z,0.00
2023-09-26T02:08:58.275Z,0.00
2023-09-26T02:09:58.305Z,0.00
2023-09-26T02:10:58.266Z,0.00
2023-09-26T02:11:58.252Z,0.00
2023-09-26T02:12:58.362Z,0.00
2023-09-26T02:13:58.264Z,0.00
2023-09-26T02:14:58.201Z,0.00
2023-09-26T02:15:58.324Z,0.00
2023-09-26T02:16:58.242Z,0.00
2023-09-26T02:17:58.229Z,0.00
2023-09-26T02:18:58.219Z,0.00
2023-09-26T02:19:58.202Z,0.00
2023-09-26T02:20:58.165Z,0.00
2023-09-26T02:21:58.160Z,0.00
2023-09-26T02:22:58.122Z,0.00
2023-09-26T02:23:58.122Z,0.00
2023-09-26T02:24:58.204Z,0.00
2023-09-26T02:25:58.128Z,0.00
2023-09-26T02:26:58.111Z,0.00
2023-09-26T02:27:58.129Z,0.00
2023-09-26T02:28:58.076Z,0.00
2023-09-26T02:29:58.076Z,0.00
2023-09-26T02:30:58.078Z,0.00
2023-09-26T02:31:58.053Z,0.00
2023-09-26T02:32:58.091Z,0.00
2023-09-26T02:33:58.033Z,0.00
2023-09-26T02:34:58.021Z,0.00
2023-09-26T02:35:57.991Z,0.00
2023-09-26T02:36:58.037Z,0.00
2023-09-26T02:37:57.986Z,0.00
2023-09-26T02:38:57.996Z,0.00
2023-09-26T02:39:58.025Z,0.00
2023-09-26T02:40:57.948Z,0.00
2023-09-26T02:41:57.939Z,0.00
2023-09-26T02:42:57.957Z,0.00
2023-09-26T02:43:57.938Z,0.00
2023-09-26T02:44:57.900Z,0.00
2023-09-26T02:45:57.974Z,0.00
2023-09-26T02:46:57.890Z,0.00
2023-09-26T02:47:57.910Z,0.00
2023-09-26T02:48:57.896Z,0.00
2023-09-26T02:49:57.854Z,0.00
2023-09-26T02:50:57.833Z,0.00
2023-09-26T02:51:57.839Z,0.00
2023-09-26T02:52:57.835Z,0.00
2023-09-26T02:53:58.823Z,0.00
2023-09-26T02:54:57.857Z,0.00
2023-09-26T02:55:57.806Z,0.00
2023-09-26T02:56:57.779Z,0.00
2023-09-26T02:57:57.814Z,0.00
2023-09-26T02:58:57.761Z,0.00
2023-09-26T02:59:57.752Z,0.00
2023-09-26T03:00:57.826Z,0.00
2023-09-26T03:01:57.764Z,0.00
2023-09-26T03:02:57.776Z,0.00
2023-09-26T03:03:57.833Z,0.00
2023-09-26T03:04:57.689Z,0.00
2023-09-26T03:05:57.673Z,0.00
2023-09-26T03:06:57.741Z,0.00
2023-09-26T03:07:57.686Z,0.00
2023-09-26T03:08:57.644Z,0.00
2023-09-26T03:09:57.695Z,0.00
2023-09-26T03:10:57.630Z,0.00
2023-09-26T03:11:57.644Z,0.00
2023-09-26T03:12:57.620Z,0.00
2023-09-26T03:13:57.603Z,0.00
2023-09-26T03:14:57.587Z,0.00
2023-09-26T03:15:57.699Z,0.00
2023-09-26T03:16:57.654Z,0.00
2023-09-26T03:17:57.584Z,0.00
2023-09-26T03:18:57.565Z,0.00
2023-09-26T03:19:57.539Z,0.00
2023-09-26T03:20:57.567Z,0.00
2023-09-26T03:21:57.599Z,0.00
2023-09-26T03:22:57.518Z,0.00
2023-09-26T03:23:57.498Z,0.00
2023-09-26T03:24:57.534Z,0.00
2023-09-26T03:25:57.498Z,0.00
2023-09-26T03:26:57.476Z,0.00
2023-09-26T03:27:57.483Z,0.00
2023-09-26T03:28:57.448Z,0.00
2023-09-26T03:29:57.448Z,0.00
2023-09-26T03:30:57.564Z,0.00
2023-09-26T03:31:57.448Z,0.00
2023-09-26T03:32:57.490Z,0.00
2023-09-26T03:33:57.427Z,0.00
2023-09-26T03:34:57.396Z,0.00
2023-09-26T03:35:57.397Z,0.00
2023-09-26T03:36:57.463Z,0.00
2023-09-26T03:37:57.366Z,0.00
2023-09-26T03:38:57.365Z,0.00
2023-09-26T03:39:57.432Z,0.00
2023-09-26T03:40:57.331Z,0.00
2023-09-26T03:41:57.333Z,0.00
2023-09-26T03:42:57.370Z,0.00
2023-09-26T03:43:57.300Z,0.00
2023-09-26T03:44:57.304Z,0.00
2023-09-26T03:45:57.343Z,0.00
2023-09-26T03:46:57.291Z,0.00
2023-09-26T03:47:57.331Z,0.00
2023-09-26T03:48:57.285Z,0.00
2023-09-26T03:49:57.245Z,0.00
2023-09-26T03:50:57.225Z,0.00
2023-09-26T03:51:57.245Z,0.00
2023-09-26T03:52:57.197Z,0.00
2023-09-26T03:53:57.214Z,0.00
2023-09-26T03:54:57.232Z,0.00
2023-09-26T03:55:57.172Z,0.00
2023-09-26T03:56:57.158Z,0.00
2023-09-26T03:57:57.172Z,0.00
2023-09-26T03:58:57.164Z,0.00
2023-09-26T03:59:57.124Z,0.00
2023-09-26T04:00:57.176Z,0.00
2023-09-26T04:01:57.229Z,0.00
2023-09-26T04:02:57.179Z,0.00
2023-09-26T04:03:57.187Z,0.00
2023-09-26T04:04:57.086Z,0.00
2023-09-26T04:05:57.063Z,0.00
2023-09-26T04:06:57.070Z,0.00
2023-09-26T04:07:57.052Z,0.00
2023-09-26T04:08:57.037Z,0.00
2023-09-26T04:09:57.143Z,0.00
2023-09-26T04:10:57.011Z,0.00
2023-09-26T04:11:57.002Z,0.00
2023-09-26T04:12:57.021Z,0.00
2023-09-26T04:13:57.023Z,0.00
2023-09-26T04:14:56.961Z,0.00
2023-09-26T04:16:00.009Z,0.00
2023-09-26T04:16:57.971Z,0.00
2023-09-26T04:17:56.966Z,0.00
2023-09-26T04:18:57.045Z,0.00
2023-09-26T04:19:56.987Z,0.00
2023-09-26T04:20:56.905Z,0.00
2023-09-26T04:21:56.908Z,0.00
2023-09-26T04:22:56.885Z,0.00
2023-09-26T04:23:56.868Z,0.00
2023-09-26T04:24:56.888Z,0.00
2023-09-26T04:25:56.846Z,0.00
2023-09-26T04:26:56.861Z,0.00
2023-09-26T04:27:56.858Z,0.00
2023-09-26T04:28:56.828Z,0.00
2023-09-26T04:29:56.807Z,0.00
2023-09-26T04:30:56.897Z,0.00
2023-09-26T04:31:56.876Z,0.00
2023-09-26T04:32:56.804Z,0.00
2023-09-26T04:33:56.797Z,0.00
2023-09-26T04:34:56.743Z,0.00
2023-09-26T04:35:56.746Z,0.00
2023-09-26T04:36:56.831Z,0.00
2023-09-26T04:37:56.783Z,0.00
2023-09-26T04:38:56.698Z,0.00
2023-09-26T04:39:56.734Z,0.00
2023-09-26T04:40:56.703Z,4.00
2023-09-26T04:41:56.672Z,4.00
2023-09-26T04:42:56.668Z,0.00
2023-09-26T04:43:56.648Z,4.00
2023-09-26T04:44:56.655Z,4.00
2023-09-26T04:45:56.689Z,4.00
2023-09-26T04:46:56.661Z,8.00
2023-09-26T04:47:56.613Z,8.00
2023-09-26T04:48:56.600Z,8.00
2023-09-26T04:49:58.396Z,8.00
2023-09-26T04:50:56.565Z,12.00
2023-09-26T04:51:56.566Z,12.00
2023-09-26T04:52:56.565Z,16.00
2023-09-26T04:53:56.550Z,20.00
2023-09-26T04:54:56.532Z,20.00
2023-09-26T04:55:56.547Z,24.00
2023-09-26T04:56:56.512Z,32.00
2023-09-26T04:57:56.512Z,36.00
2023-09-26T04:58:56.530Z,48.00
2023-09-26T04:59:56.479Z,52.00
2023-09-26T05:00:56.480Z,60.00
2023-09-26T05:01:56.453Z,72.00
2023-09-26T05:02:56.534Z,80.00
2023-09-26T05:03:56.514Z,96.00
2023-09-26T05:04:56.458Z,108.00
2023-09-26T05:06:28.296Z,124.00
2023-09-26T05:06:56.400Z,136.00
2023-09-26T05:07:56.379Z,156.00
2023-09-26T05:08:56.382Z,176.00
2023-09-26T05:09:56.409Z,192.00
2023-09-26T05:10:56.357Z,216.00
2023-09-26T05:11:56.336Z,244.00
2023-09-26T05:12:58.880Z,272.00
2023-09-26T05:13:56.332Z,304.00
2023-09-26T05:14:56.299Z,332.00
2023-09-26T05:15:56.324Z,364.00
2023-09-26T05:16:56.340Z,396.00
2023-09-26T05:17:56.317Z,428.00
2023-09-26T05:18:56.288Z,464.00
2023-09-26T05:19:56.250Z,500.00
2023-09-26T05:20:56.231Z,532.00
2023-09-26T05:21:56.247Z,568.00
2023-09-26T05:22:56.241Z,600.00
2023-09-26T05:23:56.204Z,644.00
2023-09-26T05:24:56.184Z,688.00
2023-09-26T05:25:56.178Z,740.00
2023-09-26T05:26:56.181Z,784.00
2023-09-26T05:27:56.213Z,828.00
2023-09-26T05:28:56.147Z,896.00
2023-09-26T05:29:56.142Z,980.00
2023-09-26T05:30:56.178Z,1064.00
2023-09-26T05:31:56.217Z,1140.00
2023-09-26T05:32:58.003Z,1200.00
2023-09-26T05:33:57.149Z,1272.00
2023-09-26T05:34:56.076Z,1352.00
2023-09-26T05:35:56.079Z,1436.00
2023-09-26T05:36:56.174Z,1524.00
2023-09-26T05:37:56.077Z,1600.00
2023-09-26T05:38:56.040Z,1648.00
2023-09-26T05:39:56.035Z,1668.00
2023-09-26T05:40:56.050Z,1676.00
2023-09-26T05:41:56.010Z,1700.00
2023-09-26T05:42:56.046Z,1748.00
2023-09-26T05:43:55.986Z,1820.00
2023-09-26T05:44:55.981Z,1860.00
2023-09-26T05:45:56.010Z,1948.00
2023-09-26T05:46:56.057Z,2012.00
2023-09-26T05:47:55.950Z,2092.00
2023-09-26T05:48:55.932Z,2204.00
2023-09-26T05:49:55.947Z,2292.00
2023-09-26T05:50:55.912Z,2340.00
2023-09-26T05:51:55.973Z,2464.00
2023-09-26T05:52:55.894Z,2572.00
2023-09-26T05:53:55.872Z,2656.00
2023-09-26T05:54:55.917Z,2732.00
2023-09-26T05:55:55.856Z,2836.00
2023-09-26T05:56:55.847Z,2872.00
2023-09-26T05:57:56.836Z,2944.00
2023-09-26T05:58:55.812Z,3008.00
2023-09-26T05:59:55.818Z,3088.00
2023-09-26T06:00:55.830Z,3144.00
2023-09-26T06:01:55.877Z,3216.00
2023-09-26T06:02:55.818Z,3284.00
2023-09-26T06:03:56.164Z,3332.00
2023-09-26T06:04:55.835Z,3400.00
2023-09-26T06:05:55.741Z,3444.00
2023-09-26T06:06:55.760Z,3492.00
2023-09-26T06:07:55.732Z,3536.00
2023-09-26T06:08:56.111Z,3592.00
2023-09-26T06:10:08.080Z,3656.00
2023-09-26T06:10:57.702Z,3720.00
2023-09-26T06:11:55.671Z,3768.00
2023-09-26T06:12:55.702Z,3804.00
2023-09-26T06:13:55.681Z,3836.00
2023-09-26T06:14:55.627Z,3856.00
2023-09-26T06:15:55.635Z,3880.00
2023-09-26T06:16:55.652Z,3912.00
2023-09-26T06:17:55.685Z,3932.00
2023-09-26T06:18:55.638Z,3936.00
2023-09-26T06:19:55.599Z,3972.00
2023-09-26T06:20:55.573Z,3920.00
2023-09-26T06:21:55.598Z,3964.00
2023-09-26T06:22:55.578Z,4012.00
2023-09-26T06:23:55.542Z,4072.00
2023-09-26T06:24:55.557Z,4036.00
2023-09-26T06:25:56.744Z,4052.00
2023-09-26T06:26:56.512Z,4124.00
2023-09-26T06:27:55.626Z,4200.00
2023-09-26T06:28:55.487Z,4404.00
2023-09-26T06:29:55.482Z,4364.00
2023-09-26T06:30:55.677Z,4464.00
2023-09-26T06:31:55.616Z,4420.00
2023-09-26T06:32:55.533Z,4500.00
2023-09-26T06:33:55.426Z,4624.00
2023-09-26T06:34:55.445Z,4888.00
2023-09-26T06:35:55.415Z,5172.00
2023-09-26T06:36:55.421Z,5268.00
2023-09-26T06:37:55.384Z,5100.00
2023-09-26T06:38:55.395Z,5088.00
2023-09-26T06:39:55.383Z,5076.00
2023-09-26T06:40:55.369Z,5032.00
2023-09-26T06:41:55.365Z,4936.00
2023-09-26T06:42:55.371Z,4884.00
2023-09-26T06:43:55.319Z,4948.00
2023-09-26T06:44:56.322Z,5316.00
2023-09-26T06:45:55.447Z,5796.00
2023-09-26T06:46:55.376Z,5896.00
2023-09-26T06:47:55.342Z,5984.00
2023-09-26T06:48:55.300Z,6232.00
2023-09-26T06:49:55.275Z,6236.00
2023-09-26T06:50:55.289Z,6160.00
2023-09-26T06:51:55.287Z,6024.00
2023-09-26T06:52:55.244Z,5912.00
2023-09-26T06:53:55.234Z,5756.00
2023-09-26T06:54:55.219Z,5872.00
2023-09-26T06:55:55.222Z,5864.00
2023-09-26T06:56:55.198Z,6012.00
2023-09-26T06:57:55.227Z,6100.00
2023-09-26T06:58:55.577Z,6148.00
2023-09-26T06:59:55.227Z,6184.00
2023-09-26T07:00:55.296Z,6060.00
2023-09-26T07:01:55.236Z,6012.00
2023-09-26T07:02:55.149Z,6036.00
2023-09-26T07:03:55.457Z,6036.00
2023-09-26T07:04:55.287Z,6068.00
2023-09-26T07:05:55.106Z,6160.00
2023-09-26T07:06:55.102Z,6288.00
2023-09-26T07:07:55.082Z,6364.00
2023-09-26T07:08:55.116Z,6372.00
2023-09-26T07:09:55.144Z,6216.00
2023-09-26T07:10:55.061Z,5980.00
2023-09-26T07:11:55.048Z,5852.00
2023-09-26T07:12:55.090Z,6160.00
2023-09-26T07:13:55.170Z,6312.00
2023-09-26T07:14:55.036Z,6324.00
2023-09-26T07:15:55.043Z,6600.00
2023-09-26T07:16:55.083Z,7012.00
2023-09-26T07:17:55.014Z,7120.00
2023-09-26T07:18:55.213Z,6904.00
2023-09-26T07:19:54.977Z,6972.00
2023-09-26T07:20:54.969Z,6936.00
2023-09-26T07:21:54.980Z,7052.00
2023-09-26T07:22:54.955Z,7200.00
2023-09-26T07:23:54.948Z,7312.00
2023-09-26T07:24:54.954Z,7308.00
2023-09-26T07:25:54.908Z,7260.00
2023-09-26T07:26:54.906Z,7100.00
2023-09-26T07:27:54.939Z,6992.00
2023-09-26T07:28:54.918Z,7096.00
2023-09-26T07:29:54.873Z,7088.00
2023-09-26T07:30:54.952Z,7048.00
2023-09-26T07:31:54.866Z,7044.00
2023-09-26T07:32:54.921Z,7160.00
2023-09-26T07:33:55.259Z,7004.00
2023-09-26T07:34:54.817Z,7116.00
2023-09-26T07:35:54.821Z,7004.00
2023-09-26T07:36:54.825Z,6872.00
2023-09-26T07:37:54.814Z,6912.00
2023-09-26T07:38:54.774Z,6988.00
2023-09-26T07:39:54.788Z,7232.00
2023-09-26T07:40:54.806Z,7844.00
2023-09-26T07:41:54.763Z,7456.00
2023-09-26T07:42:54.810Z,7448.00
2023-09-26T07:43:54.920Z,7732.00
2023-09-26T07:44:54.724Z,7804.00
2023-09-26T07:45:54.761Z,7648.00
2023-09-26T07:46:54.741Z,7672.00
2023-09-26T07:47:54.752Z,7832.00
2023-09-26T07:48:54.737Z,8020.00
2023-09-26T07:49:54.673Z,8368.00
2023-09-26T07:50:54.674Z,8236.00
2023-09-26T07:51:54.726Z,7876.00
2023-09-26T07:52:54.640Z,7852.00
2023-09-26T07:53:54.637Z,8112.00
2023-09-26T07:54:54.650Z,7856.00
2023-09-26T07:55:54.649Z,7920.00
2023-09-26T07:56:54.617Z,8076.00
2023-09-26T07:57:54.674Z,8212.00
2023-09-26T07:58:54.578Z,8292.00
2023-09-26T07:59:54.566Z,7784.00
2023-09-26T08:00:55.022Z,7684.00
2023-09-26T08:01:54.596Z,7856.00
2023-09-26T08:02:54.603Z,7504.00
2023-09-26T08:03:54.781Z,7952.00
2023-09-26T08:04:54.678Z,8592.00
2023-09-26T08:05:54.524Z,8188.00
2023-09-26T08:06:54.519Z,7892.00
2023-09-26T08:07:55.315Z,7932.00
2023-09-26T08:08:54.487Z,7920.00
2023-09-26T08:09:54.532Z,7908.00
2023-09-26T08:10:54.463Z,7908.00
2023-09-26T08:11:54.446Z,7940.00
2023-09-26T08:12:54.536Z,7932.00
2023-09-26T08:13:54.434Z,7916.00
2023-09-26T08:14:54.446Z,7908.00
2023-09-26T08:15:54.448Z,7912.00
2023-09-26T08:16:54.454Z,7904.00
2023-09-26T08:17:54.419Z,7896.00
2023-09-26T08:18:54.488Z,7872.00
2023-09-26T08:19:54.395Z,7896.00
2023-09-26T08:20:54.365Z,7856.00
2023-09-26T08:21:54.396Z,7916.00
2023-09-26T08:22:54.366Z,7932.00
2023-09-26T08:23:54.354Z,7936.00
2023-09-26T08:24:54.330Z,7896.00
2023-09-26T08:25:54.310Z,7936.00
2023-09-26T08:26:54.308Z,7952.00
2023-09-26T08:27:54.332Z,7980.00
2023-09-26T08:28:54.399Z,8000.00
2023-09-26T08:29:54.296Z,8004.00
2023-09-26T08:30:54.389Z,8020.00
2023-09-26T08:31:54.299Z,8032.00
2023-09-26T08:32:54.264Z,8036.00
2023-09-26T08:33:54.466Z,8044.00
2023-09-26T08:34:54.294Z,8012.00
2023-09-26T08:35:54.200Z,7444.00
2023-09-26T08:36:54.240Z,8076.00
2023-09-26T08:37:54.206Z,8116.00
2023-09-26T08:38:54.217Z,8120.00
2023-09-26T08:39:54.176Z,8132.00
2023-09-26T08:40:54.182Z,8144.00
2023-09-26T08:41:54.141Z,8152.00
2023-09-26T08:42:54.197Z,8164.00
2023-09-26T08:43:54.190Z,8172.00
2023-09-26T08:44:54.110Z,8184.00
2023-09-26T08:45:54.138Z,8192.00
2023-09-26T08:46:54.216Z,8204.00
2023-09-26T08:47:54.151Z,8208.00
2023-09-26T08:48:54.117Z,8216.00
2023-09-26T08:49:54.120Z,8228.00
2023-09-26T08:50:54.151Z,8240.00
2023-09-26T08:51:54.168Z,8120.00
2023-09-26T08:52:54.057Z,8204.00
2023-09-26T08:53:54.037Z,8280.00
2023-09-26T08:54:54.064Z,8276.00
2023-09-26T08:55:54.015Z,8280.00
2023-09-26T08:56:54.039Z,8288.00
2023-09-26T08:57:54.011Z,8292.00
2023-09-26T08:58:54.474Z,8300.00
2023-09-26T08:59:53.982Z,8300.00
2023-09-26T09:00:54.018Z,8304.00
2023-09-26T09:01:54.018Z,8320.00
2023-09-26T09:02:53.986Z,8324.00
2023-09-26T09:03:54.003Z,8328.00
2023-09-26T09:04:53.963Z,8332.00
2023-09-26T09:05:53.969Z,8336.00
2023-09-26T09:06:53.975Z,8340.00
2023-09-26T09:07:53.927Z,8344.00
2023-09-26T09:08:53.966Z,8344.00
2023-09-26T09:09:54.622Z,8352.00
2023-09-26T09:10:53.900Z,8360.00
2023-09-26T09:11:53.863Z,8360.00
2023-09-26T09:12:53.892Z,8364.00
2023-09-26T09:13:53.848Z,8364.00
2023-09-26T09:14:53.879Z,8368.00
2023-09-26T09:15:53.993Z,8380.00
2023-09-26T09:16:53.875Z,8380.00
2023-09-26T09:17:53.853Z,8388.00
2023-09-26T09:18:54.014Z,8388.00
2023-09-26T09:19:53.892Z,8396.00
2023-09-26T09:20:53.773Z,8400.00
2023-09-26T09:21:53.783Z,8412.00
2023-09-26T09:22:53.765Z,8416.00
2023-09-26T09:23:53.784Z,8424.00
2023-09-26T09:24:53.768Z,8432.00
2023-09-26T09:25:53.727Z,8436.00
2023-09-26T09:26:53.717Z,8444.00
2023-09-26T09:27:53.737Z,8452.00
2023-09-26T09:28:53.917Z,8456.00
2023-09-26T09:29:53.682Z,8456.00
2023-09-26T09:30:53.689Z,8464.00
2023-09-26T09:31:53.711Z,8468.00
2023-09-26T09:32:53.944Z,8464.00
2023-09-26T09:33:53.716Z,8480.00
2023-09-26T09:34:53.636Z,8480.00
2023-09-26T09:35:53.627Z,8484.00
2023-09-26T09:36:53.669Z,8488.00
2023-09-26T09:37:53.634Z,8484.00
2023-09-26T09:38:53.860Z,8484.00
2023-09-26T09:39:53.625Z,8488.00
2023-09-26T09:40:53.584Z,8496.00
2023-09-26T09:41:53.581Z,8500.00
2023-09-26T09:42:53.594Z,8496.00
2023-09-26T09:43:53.811Z,8504.00
2023-09-26T09:44:53.548Z,8508.00
2023-09-26T09:45:53.555Z,8504.00
2023-09-26T09:46:53.602Z,8512.00
2023-09-26T09:47:53.591Z,8508.00
2023-09-26T09:48:53.786Z,8508.00
2023-09-26T09:49:53.511Z,8504.00
2023-09-26T09:50:53.478Z,8504.00
2023-09-26T09:51:53.532Z,8500.00
2023-09-26T09:52:53.487Z,8496.00
2023-09-26T09:53:53.445Z,8488.00
2023-09-26T09:54:53.438Z,8488.00
2023-09-26T09:55:53.432Z,8484.00
2023-09-26T09:56:53.448Z,8480.00
2023-09-26T09:57:53.456Z,8480.00
2023-09-26T09:58:53.552Z,8476.00
2023-09-26T09:59:53.388Z,8476.00
2023-09-26T10:00:53.425Z,8484.00
2023-09-26T10:01:53.470Z,8480.00
2023-09-26T10:02:53.415Z,8476.00
2023-09-26T10:03:54.064Z,8480.00
2023-09-26T10:04:53.376Z,8480.00
2023-09-26T10:05:53.347Z,8484.00
2023-09-26T10:06:53.349Z,8480.00
2023-09-26T10:07:53.310Z,8484.00
2023-09-26T10:08:53.374Z,8480.00
2023-09-26T10:09:53.312Z,8484.00
2023-09-26T10:10:53.293Z,8480.00
2023-09-26T10:11:53.299Z,8484.00
2023-09-26T10:13:19.642Z,8484.00
2023-09-26T10:13:55.286Z,8484.00
2023-09-26T10:14:53.316Z,8488.00
2023-09-26T10:15:53.282Z,8488.00
2023-09-26T10:16:53.265Z,8488.00
2023-09-26T10:17:53.224Z,8496.00
2023-09-26T10:18:53.783Z,8492.00
2023-09-26T10:20:02.021Z,8500.00
2023-09-26T10:20:55.260Z,8500.00
2023-09-26T10:21:53.218Z,8492.00
2023-09-26T10:22:53.196Z,8500.00
2023-09-26T10:23:53.179Z,8504.00
2023-09-26T10:24:53.226Z,8496.00
2023-09-26T10:25:53.129Z,8504.00
2023-09-26T10:26:53.133Z,8504.00
2023-09-26T10:27:59.701Z,8508.00
2023-09-26T10:28:55.196Z,8512.00
2023-09-26T10:29:53.100Z,8508.00
2023-09-26T10:30:53.130Z,8516.00
2023-09-26T10:31:53.212Z,8516.00
2023-09-26T10:32:53.110Z,8520.00
2023-09-26T10:33:53.079Z,8520.00
2023-09-26T10:34:54.734Z,8520.00
2023-09-26T10:35:54.040Z,8528.00
2023-09-26T10:36:53.029Z,8524.00
2023-09-26T10:37:53.005Z,8528.00
2023-09-26T10:38:53.022Z,8524.00
2023-09-26T10:39:53.023Z,8528.00
2023-09-26T10:40:52.979Z,8532.00
2023-09-26T10:42:15.057Z,8524.00
2023-09-26T10:43:59.206Z,8528.00
2023-09-26T10:44:54.940Z,8528.00
2023-09-26T10:45:53.028Z,8528.00
2023-09-26T10:46:53.023Z,8528.00
2023-09-26T10:48:09.563Z,8532.00
2023-09-26T10:48:55.136Z,8532.00
2023-09-26T10:49:52.889Z,8528.00
2023-09-26T10:50:52.878Z,8528.00
2023-09-26T10:51:52.886Z,8536.00
2023-09-26T10:52:52.880Z,8536.00
2023-09-26T10:53:52.844Z,8532.00
2023-09-26T10:54:52.875Z,8528.00
2023-09-26T10:55:52.845Z,8536.00
2023-09-26T10:56:52.832Z,8536.00
2023-09-26T10:57:53.044Z,8532.00
2023-09-26T10:58:52.791Z,8532.00
2023-09-26T10:59:52.789Z,8528.00
2023-09-26T11:01:14.841Z,8536.00
2023-09-26T11:01:53.863Z,8532.00
2023-09-26T11:02:54.956Z,8528.00
2023-09-26T11:03:52.881Z,8524.00
2023-09-26T11:04:53.238Z,8528.00
2023-09-26T11:06:54.122Z,8524.00
2023-09-26T11:07:52.953Z,8520.00
2023-09-26T11:08:52.799Z,8520.00
2023-09-26T11:09:52.753Z,8520.00
2023-09-26T11:10:52.712Z,8520.00
2023-09-26T11:11:52.707Z,8516.00
2023-09-26T11:12:52.828Z,8516.00
2023-09-26T11:13:52.670Z,8516.00
2023-09-26T11:14:53.640Z,8504.00
2023-09-26T11:15:52.719Z,8504.00
2023-09-26T11:16:53.955Z,8508.00
2023-09-26T11:17:52.709Z,8504.00
2023-09-26T11:18:52.611Z,8508.00
2023-09-26T11:19:52.616Z,8508.00
2023-09-26T11:21:02.642Z,8512.00
2023-09-26T11:21:54.588Z,8516.00
2023-09-26T11:22:52.607Z,8516.00
2023-09-26T11:23:52.554Z,8508.00
2023-09-26T11:24:52.568Z,8520.00
2023-09-26T11:25:52.576Z,8508.00
2023-09-26T11:26:53.529Z,8504.00
2023-09-26T11:27:52.528Z,8508.00
2023-09-26T11:28:52.514Z,8508.00
2023-09-26T11:29:52.522Z,8508.00
2023-09-26T11:30:52.480Z,8500.00
2023-09-26T11:31:52.535Z,8496.00
2023-09-26T11:32:52.547Z,8504.00
2023-09-26T11:33:52.452Z,8504.00
2023-09-26T11:34:52.465Z,8504.00
2023-09-26T11:35:52.430Z,8504.00
2023-09-26T11:36:52.448Z,8504.00
2023-09-26T11:37:52.441Z,8504.00
2023-09-26T11:38:52.425Z,8500.00
2023-09-26T11:39:52.400Z,8504.00
2023-09-26T11:40:52.459Z,8532.00
2023-09-26T11:41:52.436Z,8512.00
2023-09-26T11:42:52.379Z,8504.00
2023-09-26T11:43:52.397Z,8500.00
2023-09-26T11:44:52.347Z,8500.00
2023-09-26T11:45:52.368Z,8512.00
2023-09-26T11:46:52.342Z,8512.00
2023-09-26T11:47:53.445Z,8508.00
2023-09-26T11:48:52.338Z,8488.00
2023-09-26T11:49:52.307Z,8480.00
2023-09-26T11:50:52.298Z,8480.00
2023-09-26T11:51:52.292Z,8484.00
2023-09-26T11:52:52.283Z,8488.00
2023-09-26T11:53:52.311Z,8496.00
2023-09-26T11:54:52.257Z,8480.00
2023-09-26T11:55:52.284Z,8508.00
2023-09-26T11:56:52.237Z,8520.00
2023-09-26T11:57:52.234Z,8524.00
2023-09-26T11:58:52.286Z,8520.00
2023-09-26T11:59:52.212Z,8508.00
2023-09-26T12:00:52.188Z,8504.00
2023-09-26T12:01:52.307Z,8520.00
2023-09-26T12:02:52.261Z,8528.00
2023-09-26T12:03:52.226Z,8520.00
2023-09-26T12:04:52.222Z,8508.00
2023-09-26T12:05:52.145Z,8508.00
2023-09-26T12:06:52.139Z,8516.00
2023-09-26T12:07:52.171Z,8512.00
2023-09-26T12:08:52.122Z,8520.00
2023-09-26T12:09:52.110Z,8520.00
2023-09-26T12:10:52.100Z,8516.00
2023-09-26T12:11:52.127Z,8528.00
2023-09-26T12:12:52.108Z,8528.00
2023-09-26T12:13:52.110Z,8528.00
2023-09-26T12:14:52.050Z,8540.00
2023-09-26T12:15:52.056Z,8556.00
2023-09-26T12:16:52.429Z,8560.00
2023-09-26T12:17:52.142Z,8552.00
2023-09-26T12:18:52.011Z,8544.00
2023-09-26T12:19:52.060Z,8544.00
2023-09-26T12:20:51.988Z,8544.00
2023-09-26T12:21:51.994Z,8556.00
2023-09-26T12:22:52.000Z,8564.00
2023-09-26T12:23:51.952Z,8568.00
2023-09-26T12:24:51.951Z,8572.00
2023-09-26T12:25:52.061Z,8576.00
2023-09-26T12:26:51.950Z,8584.00
2023-09-26T12:27:51.936Z,8572.00
2023-09-26T12:28:51.960Z,8584.00
2023-09-26T12:29:51.890Z,8596.00
2023-09-26T12:30:51.901Z,8612.00
2023-09-26T12:31:52.011Z,8608.00
2023-09-26T12:32:51.979Z,8620.00
2023-09-26T12:33:51.855Z,8628.00
2023-09-26T12:34:51.877Z,8632.00
2023-09-26T12:35:51.870Z,8648.00